createdAt,value
2022-09-28T00:00:13.009Z,1.73
2022-09-28T00:02:15.088Z,1.40
2022-09-28T00:04:16.932Z,1.42
2022-09-28T00:06:26.503Z,1.23
2022-09-28T00:08:28.112Z,1.40
2022-09-28T00:10:29.840Z,1.98
2022-09-28T00:12:31.535Z,1.73
2022-09-28T00:14:33.031Z,1.98
2022-09-28T00:16:42.944Z,1.23
2022-09-28T00:18:45.513Z,2.67
2022-09-28T00:20:47.137Z,0.68
2022-09-28T00:22:48.723Z,0.88
2022-09-28T00:24:50.392Z,1.73
2022-09-28T00:26:54.190Z,1.55
2022-09-28T00:28:59.114Z,2.20
2022-09-28T00:31:01.212Z,0.90
2022-09-28T00:33:03.440Z,2.25
2022-09-28T00:35:05.382Z,0.80
2022-09-28T00:37:11.882Z,2.17
2022-09-28T00:39:14.790Z,2.05
2022-09-28T00:41:16.683Z,1.30
2022-09-28T00:43:20.148Z,1.70
2022-09-28T00:45:25.948Z,2.55
2022-09-28T00:47:43.150Z,1.42
2022-09-28T00:49:52.312Z,1.13
2022-09-28T00:51:54.505Z,3.42
2022-09-28T00:53:56.998Z,1.33
2022-09-28T00:56:07.615Z,2.35
2022-09-28T00:58:13.110Z,1.80
2022-09-28T01:00:15.448Z,0.90
2022-09-28T01:02:17.403Z,1.10
2022-09-28T01:04:19.199Z,1.30
2022-09-28T01:06:27.717Z,1.00
2022-09-28T01:08:32.572Z,1.55
2022-09-28T01:10:34.800Z,2.05
2022-09-28T01:12:36.439Z,0.90
2022-09-28T01:14:40.719Z,2.88
2022-09-28T01:16:57.477Z,1.00
2022-09-28T01:19:43.753Z,1.45
2022-09-28T01:22:12.292Z,1.92
2022-09-28T01:24:49.218Z,1.30
2022-09-28T01:27:02.193Z,1.45
2022-09-28T01:29:19.137Z,2.00
2022-09-28T01:31:26.041Z,2.72
2022-09-28T01:33:34.743Z,2.53
2022-09-28T01:35:44.078Z,1.10
2022-09-28T01:38:00.715Z,1.25
2022-09-28T01:40:04.990Z,1.83
2022-09-28T01:42:17.069Z,2.28
2022-09-28T01:44:22.389Z,1.50
2022-09-28T01:46:31.907Z,1.85
2022-09-28T01:48:40.076Z,1.33
2022-09-28T01:50:45.553Z,1.90
2022-09-28T01:52:53.778Z,1.33
2022-09-28T01:55:02.332Z,1.60
2022-09-28T01:57:14.140Z,1.42
2022-09-28T01:59:23.926Z,2.30
2022-09-28T02:01:35.786Z,2.03
2022-09-28T02:03:42.907Z,1.27
2022-09-28T02:06:06.062Z,1.85
2022-09-28T02:08:21.851Z,0.93
2022-09-28T02:10:37.645Z,1.38
2022-09-28T02:13:10.002Z,1.75
2022-09-28T02:15:19.667Z,3.28
2022-09-28T02:17:21.589Z,2.13
2022-09-28T02:19:29.186Z,1.17
2022-09-28T02:21:53.787Z,2.28
2022-09-28T02:24:03.666Z,1.10
2022-09-28T02:26:14.658Z,1.85
2022-09-28T02:28:16.262Z,2.05
2022-09-28T02:30:18.312Z,1.50
2022-09-28T02:32:20.353Z,1.50
2022-09-28T02:34:22.108Z,1.15
2022-09-28T02:36:26.293Z,2.47
2022-09-28T02:38:27.937Z,2.15
2022-09-28T02:40:33.720Z,1.55
2022-09-28T02:42:51.949Z,1.02
2022-09-28T02:45:08.232Z,3.28
2022-09-28T02:47:39.621Z,1.40
2022-09-28T02:50:06.171Z,1.30
2022-09-28T02:52:29.900Z,1.23
2022-09-28T02:54:50.347Z,1.30
2022-09-28T02:57:31.421Z,1.20
2022-09-28T02:59:39.180Z,2.72
2022-09-28T03:01:58.770Z,2.10
2022-09-28T03:04:13.221Z,1.42
2022-09-28T03:06:30.560Z,1.90
2022-09-28T03:08:49.288Z,1.67
2022-09-28T03:11:19.375Z,1.40
2022-09-28T03:13:25.542Z,2.13
2022-09-28T03:15:30.365Z,1.25
2022-09-28T03:17:32.045Z,0.80
2022-09-28T03:19:34.668Z,1.50
2022-09-28T03:21:36.241Z,1.65
2022-09-28T03:23:38.346Z,1.58
2022-09-28T03:25:40.000Z,1.35
2022-09-28T03:27:42.702Z,1.73
2022-09-28T03:29:46.373Z,1.35
2022-09-28T03:31:49.262Z,2.05
2022-09-28T03:33:51.268Z,0.73
2022-09-28T03:35:53.494Z,1.25
2022-09-28T03:37:59.082Z,0.95
2022-09-28T03:40:04.832Z,1.55
2022-09-28T03:42:08.029Z,1.92
2022-09-28T03:44:13.789Z,1.50
2022-09-28T03:46:18.137Z,2.05
2022-09-28T03:48:29.851Z,0.50
2022-09-28T03:50:33.090Z,1.27
2022-09-28T03:52:34.882Z,1.27
2022-09-28T03:54:37.614Z,1.35
2022-09-28T03:56:40.734Z,0.68
2022-09-28T03:58:42.911Z,0.70
2022-09-28T04:00:46.258Z,0.88
2022-09-28T04:02:48.119Z,1.38
2022-09-28T04:04:50.388Z,0.88
2022-09-28T04:06:55.100Z,1.20
2022-09-28T04:08:56.923Z,0.63
2022-09-28T04:10:59.839Z,3.53
2022-09-28T04:13:01.533Z,0.75
2022-09-28T04:15:03.732Z,0.98
2022-09-28T04:17:07.387Z,1.13
2022-09-28T04:19:11.426Z,1.30
2022-09-28T04:21:15.658Z,1.90
2022-09-28T04:23:25.070Z,1.38
2022-09-28T04:25:26.704Z,1.20
2022-09-28T04:27:46.937Z,1.02
2022-09-28T04:29:51.117Z,1.98
2022-09-28T04:31:55.232Z,1.00
2022-09-28T04:34:17.481Z,0.75
2022-09-28T04:36:19.907Z,0.82
2022-09-28T04:38:41.524Z,0.98
2022-09-28T04:40:44.207Z,1.00
2022-09-28T04:42:54.389Z,2.25
2022-09-28T04:44:57.926Z,1.80
2022-09-28T04:47:02.993Z,1.23
2022-09-28T04:49:06.597Z,1.85
2022-09-28T04:51:21.561Z,3.22
2022-09-28T04:53:23.394Z,0.77
2022-09-28T04:55:25.143Z,1.20
2022-09-28T04:57:26.942Z,1.23
2022-09-28T04:59:29.690Z,1.30
2022-09-28T05:01:31.649Z,3.60
2022-09-28T05:03:51.800Z,0.95
2022-09-28T05:06:09.068Z,1.48
2022-09-28T05:08:19.132Z,1.02
2022-09-28T05:10:21.260Z,1.67
2022-09-28T05:12:23.757Z,1.23
2022-09-28T05:14:25.419Z,1.77
2022-09-28T05:16:27.872Z,1.05
2022-09-28T05:19:06.445Z,1.58
2022-09-28T05:21:15.716Z,1.58
2022-09-28T05:23:17.668Z,2.13
2022-09-28T05:25:19.564Z,1.48
2022-09-28T05:27:40.103Z,1.42
2022-09-28T05:29:56.574Z,1.45
2022-09-28T05:32:17.006Z,1.23
2022-09-28T05:34:32.359Z,0.80
2022-09-28T05:36:35.785Z,1.73
2022-09-28T05:38:37.842Z,1.27
2022-09-28T05:40:39.954Z,1.55
2022-09-28T05:42:42.221Z,1.05
2022-09-28T05:44:44.187Z,0.85
2022-09-28T05:46:46.806Z,0.95
2022-09-28T05:48:48.619Z,1.45
2022-09-28T05:50:52.571Z,1.48
2022-09-28T05:53:02.605Z,0.85
2022-09-28T05:55:06.329Z,1.63
2022-09-28T05:57:08.712Z,0.50
2022-09-28T05:59:10.373Z,0.88
2022-09-28T06:01:12.268Z,0.63
2022-09-28T06:03:14.492Z,0.55
2022-09-28T06:05:16.049Z,0.60
2022-09-28T06:07:18.630Z,0.68
2022-09-28T06:09:25.922Z,0.60
2022-09-28T06:11:32.295Z,1.08
2022-09-28T06:13:40.245Z,1.35
2022-09-28T06:15:43.545Z,1.20
2022-09-28T06:17:48.249Z,0.85
2022-09-28T06:20:08.967Z,0.70
2022-09-28T06:22:23.823Z,1.95
2022-09-28T06:24:33.007Z,0.40
2022-09-28T06:26:35.394Z,0.68
2022-09-28T06:28:37.457Z,0.85
2022-09-28T06:30:42.334Z,0.70
2022-09-28T06:32:46.833Z,1.23
2022-09-28T06:34:52.757Z,0.57
2022-09-28T06:36:57.913Z,0.75
2022-09-28T06:38:59.971Z,0.55
2022-09-28T06:41:02.008Z,1.05
2022-09-28T06:43:15.090Z,0.80
2022-09-28T06:45:36.315Z,0.65
2022-09-28T06:47:59.396Z,0.63
2022-09-28T06:50:13.518Z,1.65
2022-09-28T06:52:38.671Z,1.02
2022-09-28T06:54:48.405Z,0.70
2022-09-28T06:56:58.251Z,1.63
2022-09-28T06:59:00.065Z,0.80
2022-09-28T07:01:03.557Z,0.52
2022-09-28T07:03:19.323Z,0.82
2022-09-28T07:05:45.509Z,0.70
2022-09-28T07:08:05.752Z,2.10
2022-09-28T07:10:23.995Z,1.00
2022-09-28T07:13:02.835Z,0.77
2022-09-28T07:15:11.753Z,0.32
2022-09-28T07:17:14.773Z,0.73
2022-09-28T07:19:18.105Z,1.38
2022-09-28T07:21:28.844Z,1.17
2022-09-28T07:23:41.837Z,0.95
2022-09-28T07:26:09.895Z,0.65
2022-09-28T07:28:21.186Z,0.80
2022-09-28T07:30:42.400Z,1.23
2022-09-28T07:32:51.681Z,0.50
2022-09-28T07:35:12.150Z,0.40
2022-09-28T07:37:21.403Z,0.45
2022-09-28T07:39:23.767Z,0.75
2022-09-28T07:41:32.491Z,0.90
2022-09-28T07:43:39.688Z,0.40
2022-09-28T07:45:43.726Z,0.35
2022-09-28T07:47:47.724Z,0.40
2022-09-28T07:50:08.576Z,0.73
2022-09-28T07:52:26.249Z,1.35
2022-09-28T07:54:52.309Z,0.80
2022-09-28T07:57:21.662Z,0.52
2022-09-28T07:59:33.821Z,0.60
2022-09-28T08:02:12.319Z,0.65
2022-09-28T08:04:15.588Z,0.50
2022-09-28T08:06:19.039Z,1.42
2022-09-28T08:08:20.763Z,0.77
2022-09-28T08:10:23.150Z,0.45
2022-09-28T08:12:46.297Z,0.30
2022-09-28T08:15:10.503Z,0.63
2022-09-28T08:17:12.323Z,2.10
2022-09-28T08:19:19.328Z,0.70
2022-09-28T08:21:49.274Z,0.40
2022-09-28T08:23:51.775Z,0.50
2022-09-28T08:25:56.605Z,0.40
2022-09-28T08:27:58.645Z,0.77
2022-09-28T08:30:01.439Z,0.43
2022-09-28T08:32:35.777Z,0.75
2022-09-28T08:34:56.123Z,0.73
2022-09-28T08:37:16.232Z,0.77
2022-09-28T08:39:46.936Z,1.10
2022-09-28T08:42:25.979Z,1.02
2022-09-28T08:45:07.940Z,0.63
2022-09-28T08:47:46.846Z,0.80
2022-09-28T08:50:06.087Z,2.88
2022-09-28T08:52:28.094Z,0.45
2022-09-28T08:54:46.104Z,1.48
2022-09-28T08:57:05.704Z,0.77
2022-09-28T08:59:17.248Z,0.63
2022-09-28T09:01:26.540Z,1.05
2022-09-28T09:03:35.921Z,0.85
2022-09-28T09:06:26.946Z,0.88
2022-09-28T09:09:03.138Z,0.38
2022-09-28T09:11:11.244Z,1.63
2022-09-28T09:13:33.497Z,0.50
2022-09-28T09:16:04.356Z,0.65
2022-09-28T09:18:41.711Z,1.45
2022-09-28T09:21:15.574Z,0.93
2022-09-28T09:23:20.326Z,0.95
2022-09-28T09:25:28.826Z,1.02
2022-09-28T09:28:00.061Z,1.00
2022-09-28T09:30:11.957Z,0.35
2022-09-28T09:32:29.067Z,0.82
2022-09-28T09:34:46.769Z,0.85
2022-09-28T09:38:00.722Z,1.65
2022-09-28T09:40:34.495Z,1.20
2022-09-28T09:43:14.172Z,0.75
2022-09-28T09:45:42.621Z,0.85
2022-09-28T09:48:02.311Z,0.95
2022-09-28T09:50:20.873Z,1.02
2022-09-28T09:52:29.622Z,0.68
2022-09-28T09:55:03.520Z,0.65
2022-09-28T09:57:34.972Z,0.85
2022-09-28T09:59:49.405Z,1.10
2022-09-28T10:02:02.967Z,1.10
2022-09-28T10:04:23.357Z,2.25
2022-09-28T10:06:33.496Z,0.57
2022-09-28T10:08:42.942Z,1.05
2022-09-28T10:10:52.144Z,1.08
2022-09-28T10:12:56.433Z,1.42
2022-09-28T10:14:58.110Z,0.88
2022-09-28T10:17:04.029Z,1.02
2022-09-28T10:19:33.808Z,0.60
2022-09-28T10:21:55.032Z,1.75
2022-09-28T10:24:03.981Z,2.00
2022-09-28T10:26:27.258Z,1.58
2022-09-28T10:28:42.982Z,0.73
2022-09-28T10:30:45.603Z,0.50
2022-09-28T10:32:53.692Z,1.08
2022-09-28T10:35:12.886Z,0.70
2022-09-28T10:37:19.918Z,1.17
2022-09-28T10:39:36.679Z,1.38
2022-09-28T10:41:49.661Z,0.73
2022-09-28T10:44:10.568Z,0.98
2022-09-28T10:46:24.005Z,0.68
2022-09-28T10:48:48.194Z,0.57
2022-09-28T10:51:04.449Z,0.60
2022-09-28T10:53:12.531Z,0.98
2022-09-28T10:56:08.777Z,1.38
2022-09-28T10:58:28.046Z,0.75
2022-09-28T11:00:42.719Z,1.05
2022-09-28T11:02:52.961Z,1.02
2022-09-28T11:05:01.402Z,0.90
2022-09-28T11:07:18.290Z,1.55
2022-09-28T11:09:31.045Z,1.65
2022-09-28T11:11:41.392Z,1.13
2022-09-28T11:13:46.836Z,0.82
2022-09-28T11:15:55.857Z,1.58
2022-09-28T11:18:25.297Z,0.50
2022-09-28T11:20:28.255Z,1.20
2022-09-28T11:22:33.750Z,0.60
2022-09-28T11:24:45.464Z,0.68
2022-09-28T11:26:50.896Z,1.05
2022-09-28T11:28:56.340Z,0.88
2022-09-28T11:31:11.365Z,0.60
2022-09-28T11:33:41.436Z,0.40
2022-09-28T11:36:14.076Z,0.93
2022-09-28T11:38:27.635Z,1.90
2022-09-28T11:40:54.318Z,0.77
2022-09-28T11:45:29.545Z,0.90
2022-09-28T11:47:50.774Z,0.40
2022-09-28T11:50:01.856Z,0.68
2022-09-28T11:52:21.866Z,0.65
2022-09-28T11:54:38.464Z,1.58
2022-09-28T11:56:45.541Z,1.35
2022-09-28T11:58:55.047Z,1.38
2022-09-28T12:01:18.710Z,0.60
2022-09-28T12:03:52.789Z,1.48
2022-09-28T12:06:02.581Z,1.00
2022-09-28T12:08:12.177Z,1.73
2022-09-28T12:10:44.671Z,0.63
2022-09-28T12:12:54.316Z,1.00
2022-09-28T12:15:02.297Z,1.35
2022-09-28T12:17:20.272Z,0.90
2022-09-28T12:19:29.926Z,0.88
2022-09-28T12:21:42.748Z,0.85
2022-09-28T12:23:45.946Z,1.05
2022-09-28T12:25:57.233Z,1.33
2022-09-28T12:28:05.927Z,1.30
2022-09-28T12:30:16.424Z,1.10
2022-09-28T12:32:28.475Z,1.23
2022-09-28T12:34:30.107Z,2.13
2022-09-28T12:37:07.593Z,0.43
2022-09-28T12:39:21.685Z,0.68
2022-09-28T12:41:39.232Z,1.08
2022-09-28T12:43:56.996Z,0.30
2022-09-28T12:46:29.740Z,1.05
2022-09-28T12:49:04.167Z,1.35
2022-09-28T12:51:41.758Z,1.15
2022-09-28T12:54:00.670Z,0.52
2022-09-28T12:56:06.470Z,1.85
2022-09-28T12:58:33.864Z,0.68
2022-09-28T13:00:57.841Z,1.17
2022-09-28T13:03:20.808Z,0.60
2022-09-28T13:05:36.234Z,1.75
2022-09-28T13:08:02.488Z,1.10
2022-09-28T13:10:36.301Z,1.05
2022-09-28T13:12:40.661Z,0.85
2022-09-28T13:15:00.927Z,1.48
2022-09-28T13:17:30.095Z,0.60
2022-09-28T13:19:43.217Z,1.05
2022-09-28T13:22:14.096Z,1.17
2022-09-28T13:24:34.066Z,1.15
2022-09-28T13:26:44.869Z,2.03
2022-09-28T13:28:50.776Z,0.65
2022-09-28T13:30:53.995Z,0.98
2022-09-28T13:32:57.891Z,1.25
2022-09-28T13:35:02.414Z,0.82
2022-09-28T13:37:21.627Z,3.00
2022-09-28T13:39:37.694Z,1.67
2022-09-28T13:41:46.742Z,0.50
2022-09-28T13:44:04.644Z,1.15
2022-09-28T13:46:20.909Z,0.40
2022-09-28T13:48:39.046Z,0.68
2022-09-28T13:51:02.103Z,0.95
2022-09-28T13:53:19.216Z,0.68
2022-09-28T13:55:30.830Z,0.35
2022-09-28T13:57:44.454Z,1.60
2022-09-28T14:00:02.639Z,0.82
2022-09-28T14:02:36.763Z,2.28
2022-09-28T14:04:56.309Z,0.90
2022-09-28T14:07:16.853Z,0.90
2022-09-28T14:09:41.569Z,0.70
2022-09-28T14:11:56.385Z,0.55
2022-09-28T14:14:29.278Z,1.30
2022-09-28T14:16:33.224Z,1.25
2022-09-28T14:18:36.681Z,0.68
2022-09-28T14:20:50.741Z,2.38
2022-09-28T14:23:00.907Z,1.10
2022-09-28T14:25:07.845Z,0.90
2022-09-28T14:27:37.177Z,0.50
2022-09-28T14:29:39.915Z,1.13
2022-09-28T14:31:43.830Z,2.47
2022-09-28T14:33:56.846Z,0.73
2022-09-28T14:36:05.337Z,1.48
2022-09-28T14:38:35.340Z,0.73
2022-09-28T14:41:11.023Z,0.60
2022-09-28T14:43:25.003Z,0.85
2022-09-28T14:45:35.289Z,0.65
2022-09-28T14:48:12.419Z,0.30
2022-09-28T14:50:20.313Z,1.75
2022-09-28T14:52:40.380Z,0.60
2022-09-28T14:54:49.096Z,0.82
2022-09-28T14:57:16.697Z,1.30
2022-09-28T14:59:27.117Z,0.95
2022-09-28T15:01:30.230Z,1.65
2022-09-28T15:03:36.234Z,1.15
2022-09-28T15:05:47.322Z,0.90
2022-09-28T15:07:57.241Z,1.35
2022-09-28T15:10:00.883Z,0.68
2022-09-28T15:12:25.713Z,0.90
2022-09-28T15:14:33.018Z,1.30
2022-09-28T15:16:34.796Z,0.73
2022-09-28T15:18:45.234Z,0.85
2022-09-28T15:20:49.529Z,0.30
2022-09-28T15:22:58.729Z,1.58
2022-09-28T15:25:13.436Z,0.68
2022-09-28T15:27:24.955Z,0.57
2022-09-28T15:29:33.782Z,0.47
2022-09-28T15:31:38.363Z,0.77
2022-09-28T15:34:00.014Z,1.85
2022-09-28T15:36:09.834Z,1.27
2022-09-28T15:38:17.172Z,0.63
2022-09-28T15:40:25.546Z,0.60
2022-09-28T15:42:27.802Z,0.73
2022-09-28T15:44:32.323Z,0.80
2022-09-28T15:46:39.914Z,0.50
2022-09-28T15:48:57.075Z,1.30
2022-09-28T15:51:06.156Z,0.60
2022-09-28T15:53:18.391Z,0.77
2022-09-28T15:55:28.416Z,1.58
2022-09-28T15:57:34.142Z,0.60
2022-09-28T15:59:38.219Z,0.77
2022-09-28T16:01:42.500Z,2.45
2022-09-28T16:03:47.054Z,1.17
2022-09-28T16:06:08.895Z,0.65
2022-09-28T16:08:24.679Z,0.95
2022-09-28T16:10:35.842Z,0.77
2022-09-28T16:12:37.428Z,0.75
2022-09-28T16:14:39.143Z,0.82
2022-09-28T16:16:50.664Z,0.68
2022-09-28T16:18:53.573Z,0.60
2022-09-28T16:20:58.902Z,1.27
2022-09-28T16:23:09.204Z,0.65
2022-09-28T16:25:20.509Z,0.63
2022-09-28T16:27:37.448Z,0.80
2022-09-28T16:29:45.017Z,0.80
2022-09-28T16:31:52.715Z,0.70
2022-09-28T16:33:57.262Z,1.48
2022-09-28T16:36:03.156Z,1.08
2022-09-28T16:38:16.506Z,0.50
2022-09-28T16:40:18.365Z,0.77
2022-09-28T16:42:20.002Z,1.00
2022-09-28T16:44:31.830Z,0.60
2022-09-28T16:46:39.149Z,0.30
2022-09-28T16:48:48.651Z,1.17
2022-09-28T16:50:50.702Z,0.88
2022-09-28T16:53:19.874Z,0.70
2022-09-28T16:55:40.698Z,1.77
2022-09-28T16:57:50.108Z,0.60
2022-09-28T16:59:51.724Z,0.63
2022-09-28T17:01:54.471Z,2.05
2022-09-28T17:03:56.296Z,1.00
2022-09-28T17:05:58.047Z,3.53
2022-09-28T17:08:04.907Z,1.27
2022-09-28T17:10:17.616Z,2.33
2022-09-28T17:12:25.989Z,2.03
2022-09-28T17:14:27.577Z,2.35
2022-09-28T17:16:59.968Z,2.95
2022-09-28T17:18:55.829Z,3.10
2022-09-28T17:21:00.005Z,2.55
2022-09-28T17:23:02.568Z,3.15
2022-09-28T17:25:04.338Z,1.67
2022-09-28T17:27:06.917Z,2.47
2022-09-28T17:29:14.238Z,3.47
2022-09-28T17:31:25.088Z,1.80
2022-09-28T17:33:29.270Z,2.13
2022-09-28T17:35:31.073Z,3.33
2022-09-28T17:37:36.187Z,5.57
2022-09-28T17:39:37.721Z,4.57
2022-09-28T17:41:42.651Z,4.55
2022-09-28T17:43:45.781Z,4.45
2022-09-28T17:45:48.955Z,4.50
2022-09-28T17:47:50.428Z,4.68
2022-09-28T17:49:53.693Z,4.22
2022-09-28T17:51:55.427Z,4.43
2022-09-28T17:53:58.657Z,4.05
2022-09-28T17:56:00.593Z,4.30
2022-09-28T17:58:17.015Z,4.63
2022-09-28T18:00:18.777Z,5.57
2022-09-28T18:02:20.472Z,5.18
2022-09-28T18:04:50.143Z,4.55
2022-09-28T18:06:43.789Z,4.63
2022-09-28T18:08:45.844Z,3.63
2022-09-28T18:10:47.458Z,3.35
2022-09-28T18:12:50.268Z,2.10
2022-09-28T18:14:54.450Z,2.83
2022-09-28T18:16:59.306Z,2.25
2022-09-28T18:19:00.955Z,1.70
2022-09-28T18:21:02.553Z,4.80
2022-09-28T18:23:05.064Z,3.90
2022-09-28T18:25:07.297Z,4.55
2022-09-28T18:27:08.882Z,3.90
2022-09-28T18:29:10.481Z,4.10
2022-09-28T18:31:15.741Z,5.10
2022-09-28T18:33:17.525Z,3.50
2022-09-28T18:35:22.951Z,5.93
2022-09-28T18:37:25.057Z,9.82
2022-09-28T18:39:26.684Z,12.13
2022-09-28T18:41:29.147Z,9.52
2022-09-28T18:43:35.576Z,9.90
2022-09-28T18:45:38.289Z,9.95
2022-09-28T18:47:39.992Z,11.23
2022-09-28T18:49:46.441Z,7.32
2022-09-28T18:51:48.504Z,10.07
2022-09-28T18:53:50.164Z,6.20
2022-09-28T18:55:51.848Z,5.03
2022-09-28T18:57:53.609Z,5.72
2022-09-28T18:59:55.226Z,5.28
2022-09-28T19:01:56.971Z,5.50
2022-09-28T19:04:01.711Z,3.60
2022-09-28T19:06:03.910Z,4.65
2022-09-28T19:08:07.352Z,3.13
2022-09-28T19:10:08.941Z,1.90
2022-09-28T19:12:14.609Z,2.42
2022-09-28T19:14:16.474Z,2.42
2022-09-28T19:16:24.123Z,3.08
2022-09-28T19:18:29.912Z,3.95
2022-09-28T19:20:33.497Z,4.40
2022-09-28T19:22:35.009Z,5.03
2022-09-28T19:24:36.803Z,4.82
2022-09-28T19:26:39.256Z,4.63
2022-09-28T19:28:40.921Z,4.68
2022-09-28T19:30:42.708Z,4.25
2022-09-28T19:32:44.401Z,3.42
2022-09-28T19:34:46.088Z,3.72
2022-09-28T19:36:49.659Z,3.63
2022-09-28T19:38:56.145Z,3.13
2022-09-28T19:40:58.923Z,11.10
2022-09-28T19:43:00.599Z,26.10
2022-09-28T19:45:07.369Z,46.75
2022-09-28T19:47:11.095Z,56.20
2022-09-28T19:49:14.860Z,63.90
2022-09-28T19:51:17.097Z,48.95
2022-09-28T19:53:18.813Z,43.40
2022-09-28T19:55:21.333Z,30.88
2022-09-28T19:57:25.827Z,21.92
2022-09-28T19:59:27.529Z,19.50
2022-09-28T20:01:30.653Z,14.82
2022-09-28T20:03:33.291Z,12.10
2022-09-28T20:05:40.943Z,6.93
2022-09-28T20:07:42.834Z,6.03
2022-09-28T20:09:45.670Z,5.50
2022-09-28T20:11:47.404Z,3.53
2022-09-28T20:13:50.094Z,2.45
2022-09-28T20:15:51.759Z,3.22
2022-09-28T20:17:55.214Z,3.40
2022-09-28T20:19:57.592Z,3.80
2022-09-28T20:22:03.269Z,4.30
2022-09-28T20:24:05.655Z,3.28
2022-09-28T20:26:11.693Z,3.05
2022-09-28T20:28:15.930Z,3.85
2022-09-28T20:30:20.881Z,2.50
2022-09-28T20:32:22.587Z,4.47
2022-09-28T20:34:24.290Z,2.63
2022-09-28T20:36:26.265Z,3.47
2022-09-28T20:38:30.333Z,3.13
2022-09-28T20:40:34.968Z,2.80
2022-09-28T20:42:37.888Z,3.42
2022-09-28T20:44:40.949Z,3.50
2022-09-28T20:46:44.215Z,3.50
2022-09-28T20:48:49.247Z,3.28
2022-09-28T20:51:14.235Z,3.00
2022-09-28T20:53:16.180Z,2.65
2022-09-28T20:55:19.247Z,3.00
2022-09-28T20:57:21.334Z,3.05
2022-09-28T20:59:25.863Z,3.35
2022-09-28T21:01:32.360Z,3.45
2022-09-28T21:03:35.615Z,3.95
2022-09-28T21:05:38.506Z,3.90
2022-09-28T21:07:40.136Z,3.90
2022-09-28T21:09:41.670Z,4.88
2022-09-28T21:11:43.452Z,3.50
2022-09-28T21:13:45.502Z,5.22
2022-09-28T21:15:50.653Z,4.28
2022-09-28T21:17:52.202Z,5.70
2022-09-28T21:19:53.840Z,4.35
2022-09-28T21:21:58.251Z,4.28
2022-09-28T21:24:03.423Z,4.43
2022-09-28T21:26:09.497Z,4.95
2022-09-28T21:28:16.072Z,4.90
2022-09-28T21:30:20.148Z,3.72
2022-09-28T21:32:23.249Z,4.35
2022-09-28T21:34:25.530Z,5.10
2022-09-28T21:36:27.131Z,4.22
2022-09-28T21:38:29.529Z,4.22
2022-09-28T21:40:31.555Z,3.03
2022-09-28T21:42:35.203Z,4.20
2022-09-28T21:44:36.929Z,3.30
2022-09-28T21:46:39.058Z,4.18
2022-09-28T21:48:40.948Z,3.45
2022-09-28T21:50:42.696Z,3.25
2022-09-28T21:52:44.456Z,3.33
2022-09-28T21:54:46.042Z,6.13
2022-09-28T21:56:47.683Z,3.95
2022-09-28T21:58:50.028Z,4.68
2022-09-28T22:01:23.808Z,5.82
2022-09-28T22:03:25.789Z,4.35
2022-09-28T22:05:28.207Z,5.22
2022-09-28T22:07:30.844Z,5.00
2022-09-28T22:09:32.454Z,5.80
2022-09-28T22:11:34.328Z,5.28
2022-09-28T22:13:41.593Z,5.63
2022-09-28T22:15:43.667Z,6.97
2022-09-28T22:17:45.433Z,7.47
2022-09-28T22:19:49.767Z,7.85
2022-09-28T22:21:51.374Z,6.20
2022-09-28T22:23:53.453Z,5.30
2022-09-28T22:26:10.001Z,7.43
2022-09-28T22:28:11.511Z,5.38
2022-09-28T22:30:13.377Z,8.10
2022-09-28T22:32:14.901Z,17.92
2022-09-28T22:34:16.504Z,31.25
2022-09-28T22:36:19.247Z,31.20
2022-09-28T22:38:22.889Z,24.30
2022-09-28T22:40:25.404Z,19.23
2022-09-28T22:42:27.185Z,13.77
2022-09-28T22:44:31.553Z,11.00
2022-09-28T22:46:33.320Z,9.10
2022-09-28T22:48:35.399Z,8.15
2022-09-28T22:50:38.983Z,6.57
2022-09-28T22:52:40.644Z,7.35
2022-09-28T22:54:43.623Z,6.75
2022-09-28T22:56:45.372Z,4.35
2022-09-28T22:58:49.508Z,5.38
2022-09-28T23:00:51.200Z,5.10
2022-09-28T23:02:58.210Z,5.75
2022-09-28T23:04:59.859Z,4.72
2022-09-28T23:07:01.596Z,4.38
2022-09-28T23:09:03.764Z,6.13
2022-09-28T23:11:06.411Z,4.93
2022-09-28T23:13:08.126Z,5.05
2022-09-28T23:15:10.429Z,4.57
2022-09-28T23:17:12.096Z,3.85
2022-09-28T23:19:13.645Z,4.80
2022-09-28T23:21:20.690Z,4.35
2022-09-28T23:23:22.974Z,5.43
2022-09-28T23:25:24.675Z,4.15
2022-09-28T23:27:26.446Z,4.20
2022-09-28T23:29:28.044Z,3.67
2022-09-28T23:31:31.481Z,5.10
2022-09-28T23:33:33.285Z,6.18
2022-09-28T23:35:45.764Z,4.35
2022-09-28T23:37:50.626Z,3.53
2022-09-28T23:39:52.209Z,4.75
2022-09-28T23:41:53.988Z,3.45
2022-09-28T23:43:55.905Z,5.57
2022-09-28T23:45:57.837Z,3.83
2022-09-28T23:47:59.533Z,5.55
2022-09-28T23:50:01.459Z,4.18
2022-09-28T23:52:05.720Z,6.45
2022-09-28T23:54:07.479Z,9.13
2022-09-28T23:56:09.276Z,10.30
2022-09-28T23:58:11.891Z,13.60
